createdAt,value
2022-12-10T00:01:36.290Z,6.38
2022-12-10T00:04:38.917Z,6.34
2022-12-10T00:07:41.698Z,6.41
2022-12-10T00:10:44.593Z,6.43
2022-12-10T00:13:49.193Z,6.55
2022-12-10T00:16:51.949Z,6.43
2022-12-10T00:19:54.713Z,6.40
2022-12-10T00:22:57.431Z,6.39
2022-12-10T00:26:09.002Z,6.40
2022-12-10T00:29:13.344Z,6.49
2022-12-10T00:32:16.098Z,6.49
2022-12-10T00:35:18.856Z,6.49
2022-12-10T00:38:21.568Z,6.48
2022-12-10T00:41:24.609Z,6.48
2022-12-10T00:44:27.475Z,6.44
2022-12-10T00:47:30.261Z,6.45
2022-12-10T00:50:35.055Z,6.46
2022-12-10T00:53:41.259Z,6.48
2022-12-10T00:56:43.995Z,6.50
2022-12-10T00:59:46.804Z,6.52
2022-12-10T01:02:49.575Z,6.56
2022-12-10T01:05:53.525Z,6.62
2022-12-10T01:08:59.041Z,6.62
2022-12-10T01:12:03.848Z,6.59
2022-12-10T01:15:06.950Z,6.72
2022-12-10T01:18:09.685Z,6.85
2022-12-10T01:21:15.566Z,6.81
2022-12-10T01:24:18.287Z,6.67
2022-12-10T01:27:21.144Z,6.67
2022-12-10T01:30:24.374Z,6.70
2022-12-10T01:33:27.054Z,6.71
2022-12-10T01:36:33.902Z,6.70
2022-12-10T01:39:36.625Z,6.85
2022-12-10T01:42:39.428Z,6.72
2022-12-10T01:45:43.056Z,6.66
2022-12-10T01:48:45.789Z,6.65
2022-12-10T01:51:51.831Z,6.61
2022-12-10T01:54:54.599Z,6.60
2022-12-10T01:57:57.486Z,6.58
2022-12-10T02:01:09.846Z,6.57
2022-12-10T02:04:26.491Z,6.58
2022-12-10T02:07:28.850Z,6.76
2022-12-10T02:10:47.410Z,6.63
2022-12-10T02:14:01.774Z,6.61
2022-12-10T02:17:12.829Z,6.59
2022-12-10T02:20:32.785Z,6.63
2022-12-10T02:23:43.854Z,6.65
2022-12-10T02:27:07.648Z,6.66
2022-12-10T02:30:11.431Z,6.66
2022-12-10T02:33:15.431Z,6.69
2022-12-10T02:36:21.577Z,6.72
2022-12-10T02:39:32.694Z,6.75
2022-12-10T02:42:39.870Z,6.77
2022-12-10T02:45:44.822Z,6.79
2022-12-10T02:48:51.157Z,6.85
2022-12-10T02:51:54.311Z,6.83
2022-12-10T02:54:58.555Z,6.84
2022-12-10T02:58:16.960Z,6.90
2022-12-10T03:01:46.016Z,6.96
2022-12-10T03:04:55.360Z,7.06
2022-12-10T03:08:12.763Z,7.02
2022-12-10T03:11:20.662Z,7.07
2022-12-10T03:14:28.932Z,7.09
2022-12-10T03:17:33.322Z,7.03
2022-12-10T03:20:40.546Z,7.05
2022-12-10T03:23:46.743Z,7.08
2022-12-10T03:26:51.095Z,7.04
2022-12-10T03:29:57.234Z,7.03
2022-12-10T03:33:01.105Z,7.10
2022-12-10T03:36:04.447Z,7.11
2022-12-10T03:39:08.390Z,7.03
2022-12-10T03:42:10.728Z,7.04
2022-12-10T03:45:14.766Z,7.09
2022-12-10T03:48:17.411Z,6.97
2022-12-10T03:51:20.959Z,7.09
2022-12-10T03:54:23.543Z,7.00
2022-12-10T03:57:26.660Z,7.07
2022-12-10T04:00:29.209Z,7.03
2022-12-10T04:03:37.209Z,6.96
2022-12-10T04:06:41.695Z,7.01
2022-12-10T04:09:44.840Z,7.02
2022-12-10T04:13:07.284Z,6.93
2022-12-10T04:16:28.409Z,6.88
2022-12-10T04:19:31.046Z,6.82
2022-12-10T04:22:52.441Z,6.80
2022-12-10T04:26:13.797Z,6.76
2022-12-10T04:29:17.183Z,6.75
2022-12-10T04:32:20.873Z,6.75
2022-12-10T04:35:24.040Z,6.71
2022-12-10T04:38:26.427Z,6.66
2022-12-10T04:41:29.509Z,6.63
2022-12-10T04:44:32.616Z,6.63
2022-12-10T04:47:35.491Z,6.67
2022-12-10T04:50:37.851Z,6.57
2022-12-10T04:53:40.889Z,6.67
2022-12-10T04:56:44.197Z,6.58
2022-12-10T04:59:47.697Z,6.55
2022-12-10T05:02:50.786Z,6.52
2022-12-10T05:05:53.819Z,6.57
2022-12-10T05:08:56.954Z,6.53
2022-12-10T05:12:00.041Z,6.56
2022-12-10T05:15:02.566Z,6.54
2022-12-10T05:18:05.655Z,6.53
2022-12-10T05:21:12.000Z,6.61
2022-12-10T05:24:16.343Z,6.67
2022-12-10T05:27:18.801Z,6.55
2022-12-10T05:30:21.858Z,6.51
2022-12-10T05:33:25.315Z,6.47
2022-12-10T05:36:31.630Z,6.46
2022-12-10T05:39:34.090Z,6.48
2022-12-10T05:42:39.538Z,6.46
2022-12-10T05:45:42.264Z,6.46
2022-12-10T05:48:45.592Z,6.64
2022-12-10T05:51:48.104Z,6.53
2022-12-10T05:54:51.194Z,6.48
2022-12-10T05:57:53.956Z,6.43
2022-12-10T06:00:58.425Z,6.42
2022-12-10T06:04:03.029Z,6.40
2022-12-10T06:07:10.928Z,6.36
2022-12-10T06:10:14.003Z,6.36
2022-12-10T06:13:16.802Z,6.34
2022-12-10T06:16:19.575Z,6.39
2022-12-10T06:19:22.359Z,6.41
2022-12-10T06:22:25.087Z,6.37
2022-12-10T06:25:27.803Z,6.38
2022-12-10T06:28:30.527Z,6.40
2022-12-10T06:31:33.895Z,6.38
2022-12-10T06:34:42.632Z,6.51
2022-12-10T06:37:45.644Z,6.37
2022-12-10T06:40:48.387Z,6.35
2022-12-10T06:43:51.149Z,6.29
2022-12-10T06:46:54.059Z,6.29
2022-12-10T06:49:56.848Z,6.28
2022-12-10T06:52:59.547Z,6.29
2022-12-10T06:56:03.137Z,6.47
2022-12-10T06:59:09.777Z,6.41
2022-12-10T07:02:12.796Z,6.51
2022-12-10T07:05:15.813Z,6.57
2022-12-10T07:08:20.419Z,6.37
2022-12-10T07:11:25.115Z,6.37
2022-12-10T07:14:27.834Z,6.38
2022-12-10T07:17:30.933Z,6.43
2022-12-10T07:20:33.661Z,6.38
2022-12-10T07:23:36.362Z,6.31
2022-12-10T07:26:41.415Z,6.22
2022-12-10T07:29:45.417Z,6.23
2022-12-10T07:32:48.170Z,6.19
2022-12-10T07:35:50.876Z,6.31
2022-12-10T07:38:55.185Z,6.28
2022-12-10T07:41:57.954Z,6.30
2022-12-10T07:45:00.726Z,6.32
2022-12-10T07:48:03.688Z,6.36
2022-12-10T07:51:06.619Z,6.38
2022-12-10T07:54:09.332Z,6.36
2022-12-10T07:57:12.357Z,6.34
2022-12-10T08:00:17.736Z,6.44
2022-12-10T08:03:20.972Z,6.37
2022-12-10T08:06:25.068Z,6.37
2022-12-10T08:09:29.622Z,6.48
2022-12-10T08:12:32.175Z,6.61
2022-12-10T08:15:35.320Z,6.81
2022-12-10T08:18:38.096Z,6.87
2022-12-10T08:21:41.186Z,6.81
2022-12-10T08:24:43.765Z,6.80
2022-12-10T08:27:46.795Z,6.80
2022-12-10T08:30:49.649Z,6.88
2022-12-10T08:33:53.503Z,6.96
2022-12-10T08:36:56.098Z,7.11
2022-12-10T08:39:59.063Z,6.95
2022-12-10T08:43:01.556Z,7.06
2022-12-10T08:46:05.391Z,7.03
2022-12-10T08:49:08.223Z,7.07
2022-12-10T08:52:11.170Z,7.16
2022-12-10T08:55:13.814Z,7.26
2022-12-10T08:58:16.841Z,7.33
2022-12-10T09:01:20.404Z,7.42
2022-12-10T09:04:23.547Z,7.50
2022-12-10T09:07:26.215Z,7.32
2022-12-10T09:10:29.465Z,7.22
2022-12-10T09:13:32.027Z,7.17
2022-12-10T09:16:37.819Z,7.31
2022-12-10T09:19:41.382Z,7.28
2022-12-10T09:22:44.484Z,7.31
2022-12-10T09:25:47.164Z,7.23
2022-12-10T09:28:52.766Z,7.17
2022-12-10T09:31:55.947Z,7.34
2022-12-10T09:34:59.258Z,7.31
2022-12-10T09:38:01.807Z,7.19
2022-12-10T09:41:18.363Z,7.13
2022-12-10T09:44:37.211Z,7.12
2022-12-10T09:47:55.852Z,7.15
2022-12-10T09:51:18.449Z,7.17
2022-12-10T09:54:35.121Z,7.29
2022-12-10T09:57:45.291Z,7.24
2022-12-10T10:00:52.841Z,7.24
2022-12-10T10:03:55.659Z,7.33
2022-12-10T10:06:58.820Z,7.31
2022-12-10T10:10:06.169Z,7.38
2022-12-10T10:13:09.054Z,7.44
2022-12-10T10:16:28.854Z,7.32
2022-12-10T10:19:36.824Z,7.27
2022-12-10T10:22:41.556Z,7.21
2022-12-10T10:25:45.572Z,7.30
2022-12-10T10:28:52.715Z,7.23
2022-12-10T10:32:16.333Z,7.05
2022-12-10T10:35:27.023Z,6.95
2022-12-10T10:38:31.020Z,6.98
2022-12-10T10:41:40.756Z,7.03
2022-12-10T10:44:43.612Z,7.08
2022-12-10T10:47:46.407Z,7.13
2022-12-10T10:51:09.675Z,7.06
2022-12-10T10:54:12.716Z,7.00
2022-12-10T10:57:34.518Z,6.97
2022-12-10T11:00:37.282Z,7.07
2022-12-10T11:03:48.536Z,7.02
2022-12-10T11:06:54.570Z,6.97
2022-12-10T11:10:00.548Z,6.95
2022-12-10T11:13:05.427Z,6.92
2022-12-10T11:16:26.079Z,6.89
2022-12-10T11:19:29.003Z,6.86
2022-12-10T11:22:34.321Z,6.83
2022-12-10T11:25:57.568Z,6.86
2022-12-10T11:29:18.458Z,6.87
2022-12-10T11:32:35.207Z,6.89
2022-12-10T11:35:40.613Z,6.87
2022-12-10T11:38:53.686Z,6.84
2022-12-10T11:42:25.474Z,6.81
2022-12-10T11:46:07.207Z,6.87
2022-12-10T11:49:19.121Z,6.84
2022-12-10T11:52:43.252Z,6.81
2022-12-10T11:56:15.298Z,6.83
2022-12-10T12:00:04.135Z,6.85
2022-12-10T12:03:17.259Z,6.85
2022-12-10T12:06:36.076Z,6.84
2022-12-10T12:09:56.852Z,6.71
2022-12-10T12:13:18.399Z,6.64
2022-12-10T12:16:29.720Z,6.58
2022-12-10T12:19:40.224Z,6.59
2022-12-10T12:22:48.398Z,6.63
2022-12-10T12:25:58.669Z,6.54
2022-12-10T12:29:22.557Z,6.48
2022-12-10T12:32:37.366Z,6.53
2022-12-10T12:35:44.897Z,6.43
2022-12-10T12:39:12.765Z,6.37
2022-12-10T12:42:50.597Z,6.34
2022-12-10T12:45:55.299Z,6.31
2022-12-10T12:49:15.218Z,6.27
2022-12-10T12:52:30.538Z,6.28
2022-12-10T12:55:44.811Z,6.26
2022-12-10T12:59:13.646Z,6.23
2022-12-10T13:02:54.025Z,6.18
2022-12-10T13:06:18.033Z,6.09
2022-12-10T13:09:27.861Z,6.08
2022-12-10T13:12:32.963Z,6.14
2022-12-10T13:15:40.186Z,6.12
2022-12-10T13:18:43.090Z,6.21
2022-12-10T13:21:51.858Z,6.11
2022-12-10T13:25:12.406Z,6.08
2022-12-10T13:28:27.341Z,6.04
2022-12-10T13:31:49.035Z,6.06
2022-12-10T13:35:17.844Z,6.04
2022-12-10T13:38:23.875Z,6.05
2022-12-10T13:41:45.356Z,6.05
2022-12-10T13:44:51.227Z,6.04
2022-12-10T13:48:14.277Z,6.07
2022-12-10T13:51:26.632Z,6.04
2022-12-10T13:55:04.273Z,6.05
2022-12-10T13:58:20.237Z,6.00
2022-12-10T14:01:38.689Z,6.02
2022-12-10T14:05:01.662Z,5.97
2022-12-10T14:08:06.296Z,5.94
2022-12-10T14:11:23.736Z,5.90
2022-12-10T14:14:39.498Z,5.87
2022-12-10T14:17:44.412Z,5.89
2022-12-10T14:20:51.627Z,5.85
2022-12-10T14:23:56.711Z,5.89
2022-12-10T14:27:12.722Z,5.91
2022-12-10T14:30:22.607Z,5.86
2022-12-10T14:33:26.407Z,5.85
2022-12-10T14:36:33.437Z,5.92
2022-12-10T14:39:39.575Z,5.82
2022-12-10T14:42:42.471Z,5.79
2022-12-10T14:45:58.305Z,5.75
2022-12-10T14:49:01.382Z,5.74
2022-12-10T14:52:09.968Z,5.73
2022-12-10T14:55:19.616Z,5.71
2022-12-10T14:58:46.599Z,5.70
2022-12-10T15:01:57.152Z,5.70
2022-12-10T15:05:00.643Z,5.71
2022-12-10T15:08:16.841Z,5.73
2022-12-10T15:11:21.075Z,5.71
2022-12-10T15:14:25.697Z,5.73
2022-12-10T15:17:45.288Z,5.71
2022-12-10T15:20:52.585Z,5.69
2022-12-10T15:24:27.358Z,5.70
2022-12-10T15:27:30.339Z,5.71
2022-12-10T15:30:36.420Z,5.72
2022-12-10T15:33:54.693Z,5.75
2022-12-10T15:37:03.085Z,5.69
2022-12-10T15:40:20.754Z,5.69
2022-12-10T15:43:23.516Z,5.69
2022-12-10T15:46:26.616Z,5.70
2022-12-10T15:49:30.654Z,5.68
2022-12-10T15:52:33.817Z,5.68
2022-12-10T15:55:36.579Z,5.67
2022-12-10T15:58:43.124Z,5.60
2022-12-10T16:01:46.998Z,5.57
2022-12-10T16:04:49.815Z,5.57
2022-12-10T16:07:56.266Z,5.54
2022-12-10T16:11:03.491Z,5.57
2022-12-10T16:14:07.532Z,5.63
2022-12-10T16:17:13.096Z,5.66
2022-12-10T16:20:19.668Z,5.69
2022-12-10T16:23:22.572Z,5.64
2022-12-10T16:26:25.475Z,5.71
2022-12-10T16:29:28.239Z,5.74
2022-12-10T16:32:30.972Z,5.75
2022-12-10T16:35:33.750Z,5.71
2022-12-10T16:38:36.489Z,5.77
2022-12-10T16:41:39.634Z,5.77
2022-12-10T16:44:42.428Z,5.78
2022-12-10T16:47:45.309Z,5.84
2022-12-10T16:50:50.384Z,5.86
2022-12-10T16:53:53.157Z,5.78
2022-12-10T16:56:55.905Z,5.74
2022-12-10T16:59:58.692Z,5.72
2022-12-10T17:03:07.794Z,5.72
2022-12-10T17:06:12.904Z,5.77
2022-12-10T17:09:15.999Z,5.76
2022-12-10T17:12:19.179Z,5.78
2022-12-10T17:15:21.879Z,5.75
2022-12-10T17:18:24.982Z,5.72
2022-12-10T17:21:27.894Z,5.71
2022-12-10T17:24:31.444Z,5.75
2022-12-10T17:27:38.893Z,5.74
2022-12-10T17:30:42.669Z,5.73
2022-12-10T17:33:51.511Z,5.73
2022-12-10T17:36:55.098Z,5.74
2022-12-10T17:39:57.823Z,5.74
2022-12-10T17:43:00.525Z,5.73
2022-12-10T17:46:03.467Z,5.74
2022-12-10T17:49:07.014Z,5.72
2022-12-10T17:52:09.842Z,5.68
2022-12-10T17:55:12.618Z,5.79
2022-12-10T17:58:15.948Z,5.70
2022-12-10T18:01:20.084Z,5.66
2022-12-10T18:04:23.126Z,5.63
2022-12-10T18:07:25.607Z,5.66
2022-12-10T18:10:32.220Z,5.69
2022-12-10T18:13:34.680Z,5.76
2022-12-10T18:16:38.470Z,5.71
2022-12-10T18:19:44.295Z,5.72
2022-12-10T18:22:48.207Z,5.88
2022-12-10T18:25:51.102Z,5.84
2022-12-10T18:28:55.696Z,5.82
2022-12-10T18:31:58.061Z,5.85
2022-12-10T18:35:01.068Z,5.80
2022-12-10T18:38:03.864Z,5.77
2022-12-10T18:41:11.234Z,5.75
2022-12-10T18:44:17.106Z,5.78
2022-12-10T18:47:20.182Z,5.80
2022-12-10T18:50:25.776Z,5.81
2022-12-10T18:53:28.815Z,5.81
2022-12-10T18:56:32.908Z,5.87
2022-12-10T18:59:36.077Z,5.87
2022-12-10T19:02:43.619Z,5.87
2022-12-10T19:05:46.990Z,5.90
2022-12-10T19:12:13.714Z,6.00
2022-12-10T19:15:18.848Z,5.98
2022-12-10T19:18:21.935Z,5.99
2022-12-10T19:21:24.477Z,6.03
2022-12-10T19:24:27.507Z,6.02
2022-12-10T19:27:29.945Z,6.00
2022-12-10T19:30:33.213Z,6.00
2022-12-10T19:33:35.807Z,6.00
2022-12-10T19:36:40.344Z,6.02
2022-12-10T19:39:42.958Z,6.01
2022-12-10T19:42:46.244Z,6.03
2022-12-10T19:45:48.736Z,6.04
2022-12-10T19:48:52.047Z,6.09
2022-12-10T19:51:54.535Z,6.08
2022-12-10T19:54:57.770Z,6.06
2022-12-10T19:58:00.372Z,6.07
2022-12-10T20:01:07.047Z,6.10
2022-12-10T20:04:10.111Z,6.09
2022-12-10T20:07:13.116Z,6.11
2022-12-10T20:10:22.123Z,6.15
2022-12-10T20:13:25.100Z,6.11
2022-12-10T20:16:30.045Z,6.18
2022-12-10T20:19:33.709Z,6.12
2022-12-10T20:22:36.660Z,6.11
2022-12-10T20:25:42.051Z,6.10
2022-12-10T20:28:46.697Z,6.18
2022-12-10T20:31:51.621Z,6.14
2022-12-10T20:34:54.372Z,6.14
2022-12-10T20:37:58.699Z,6.14
2022-12-10T20:41:01.515Z,6.18
2022-12-10T20:44:04.519Z,6.28
2022-12-10T20:47:09.904Z,6.23
2022-12-10T20:50:16.764Z,6.20
2022-12-10T20:53:19.628Z,6.21
2022-12-10T20:56:24.711Z,6.18
2022-12-10T20:59:31.324Z,6.20
2022-12-10T21:02:34.395Z,6.18
2022-12-10T21:05:37.261Z,6.16
2022-12-10T21:08:40.103Z,6.14
2022-12-10T21:11:42.870Z,6.13
2022-12-10T21:14:54.060Z,6.16
2022-12-10T21:17:59.849Z,6.17
2022-12-10T21:21:03.157Z,6.18
2022-12-10T21:24:06.395Z,6.19
2022-12-10T21:27:09.196Z,6.22
2022-12-10T21:30:13.053Z,6.30
2022-12-10T21:33:22.884Z,6.38
2022-12-10T21:36:26.205Z,6.27
2022-12-10T21:39:28.999Z,6.27
2022-12-10T21:42:50.121Z,6.24
2022-12-10T21:45:55.969Z,6.26
2022-12-10T21:48:58.980Z,6.27
2022-12-10T21:52:01.693Z,6.24
2022-12-10T21:55:05.583Z,6.19
2022-12-10T21:58:08.445Z,6.22
2022-12-10T22:01:14.260Z,6.27
2022-12-10T22:04:17.865Z,6.14
2022-12-10T22:07:20.484Z,6.18
2022-12-10T22:10:23.722Z,6.17
2022-12-10T22:13:26.183Z,6.09
2022-12-10T22:16:29.432Z,6.05
2022-12-10T22:19:31.977Z,6.15
2022-12-10T22:22:35.347Z,6.16
2022-12-10T22:25:41.541Z,5.99
2022-12-10T22:28:44.981Z,6.05
2022-12-10T22:31:47.580Z,6.01
2022-12-10T22:34:53.687Z,5.96
2022-12-10T22:37:56.173Z,5.96
2022-12-10T22:41:02.333Z,5.91
2022-12-10T22:44:05.015Z,5.84
2022-12-10T22:47:08.354Z,5.93
2022-12-10T22:50:11.194Z,5.88
2022-12-10T22:53:14.106Z,5.86
2022-12-10T22:56:16.870Z,5.82
2022-12-10T22:59:19.868Z,5.89
2022-12-10T23:02:22.596Z,5.89
2022-12-10T23:05:26.566Z,6.00
2022-12-10T23:08:31.281Z,5.90
2022-12-10T23:11:34.504Z,5.86
2022-12-10T23:14:36.989Z,5.80
2022-12-10T23:17:40.020Z,5.74
2022-12-10T23:20:49.249Z,5.73
2022-12-10T23:23:54.604Z,5.72
2022-12-10T23:26:57.093Z,5.69
2022-12-10T23:30:00.164Z,5.66
2022-12-10T23:33:08.216Z,5.61
2022-12-10T23:36:12.061Z,5.63
2022-12-10T23:39:15.161Z,5.74
2022-12-10T23:42:18.127Z,5.68
2022-12-10T23:45:23.573Z,5.65
2022-12-10T23:48:26.721Z,5.66
2022-12-10T23:51:29.327Z,5.74
2022-12-10T23:54:33.504Z,5.67
2022-12-10T23:57:36.588Z,5.72
